sensor_id;sensor_type;location;lat;lon;timestamp;P1;durP1;ratioP1;P2;durP2;ratioP2
18501;SDS011;68437;52.236;5.710;2023-03-16T00:01:05;11.23;;;4.60;;
18501;SDS011;68437;52.236;5.710;2023-03-16T00:03:33;9.45;;;4.80;;
18501;SDS011;68437;52.236;5.710;2023-03-16T00:06:00;11.00;;;4.80;;
18501;SDS011;68437;52.236;5.710;2023-03-16T00:08:27;10.27;;;5.35;;
18501;SDS011;68437;52.236;5.710;2023-03-16T00:10:54;10.60;;;4.63;;
18501;SDS011;68437;52.236;5.710;2023-03-16T00:13:21;8.65;;;4.88;;
18501;SDS011;68437;52.236;5.710;2023-03-16T00:15:49;8.98;;;5.07;;
18501;SDS011;68437;52.236;5.710;2023-03-16T00:18:18;9.88;;;5.00;;
18501;SDS011;68437;52.236;5.710;2023-03-16T00:20:48;12.25;;;5.05;;
18501;SDS011;68437;52.236;5.710;2023-03-16T00:23:16;10.57;;;4.60;;
18501;SDS011;68437;52.236;5.710;2023-03-16T00:25:42;16.13;;;5.30;;
18501;SDS011;68437;52.236;5.710;2023-03-16T00:28:09;10.00;;;5.17;;
18501;SDS011;68437;52.236;5.710;2023-03-16T00:30:38;10.75;;;4.40;;
18501;SDS011;68437;52.236;5.710;2023-03-16T00:33:04;9.23;;;4.93;;
18501;SDS011;68437;52.236;5.710;2023-03-16T00:35:33;8.50;;;4.93;;
18501;SDS011;68437;52.236;5.710;2023-03-16T00:37:59;8.38;;;4.82;;
18501;SDS011;68437;52.236;5.710;2023-03-16T00:40:26;14.05;;;5.00;;
18501;SDS011;68437;52.236;5.710;2023-03-16T00:42:54;10.15;;;4.97;;
18501;SDS011;68437;52.236;5.710;2023-03-16T00:45:21;10.95;;;5.28;;
18501;SDS011;68437;52.236;5.710;2023-03-16T00:47:49;11.63;;;4.97;;
18501;SDS011;68437;52.236;5.710;2023-03-16T00:50:18;11.97;;;5.50;;
18501;SDS011;68437;52.236;5.710;2023-03-16T00:52:47;10.07;;;5.25;;
18501;SDS011;68437;52.236;5.710;2023-03-16T00:55:17;10.05;;;4.90;;
18501;SDS011;68437;52.236;5.710;2023-03-16T00:57:44;7.35;;;4.75;;
18501;SDS011;68437;52.236;5.710;2023-03-16T01:00:11;9.02;;;5.35;;
18501;SDS011;68437;52.236;5.710;2023-03-16T01:02:41;16.00;;;5.80;;
18501;SDS011;68437;52.236;5.710;2023-03-16T01:05:09;11.07;;;5.70;;
18501;SDS011;68437;52.236;5.710;2023-03-16T01:07:36;10.50;;;5.70;;
18501;SDS011;68437;52.236;5.710;2023-03-16T01:10:05;9.13;;;5.30;;
18501;SDS011;68437;52.236;5.710;2023-03-16T01:12:33;9.87;;;5.43;;
18501;SDS011;68437;52.236;5.710;2023-03-16T01:15:00;14.48;;;5.82;;
18501;SDS011;68437;52.236;5.710;2023-03-16T01:17:27;9.52;;;5.15;;
18501;SDS011;68437;52.236;5.710;2023-03-16T01:19:54;11.07;;;5.50;;
18501;SDS011;68437;52.236;5.710;2023-03-16T01:22:21;14.20;;;5.70;;
18501;SDS011;68437;52.236;5.710;2023-03-16T01:24:47;8.98;;;5.38;;
18501;SDS011;68437;52.236;5.710;2023-03-16T01:27:16;11.10;;;6.00;;
18501;SDS011;68437;52.236;5.710;2023-03-16T01:29:42;13.70;;;6.20;;
18501;SDS011;68437;52.236;5.710;2023-03-16T01:32:09;11.98;;;5.95;;
18501;SDS011;68437;52.236;5.710;2023-03-16T01:34:37;12.27;;;5.20;;
18501;SDS011;68437;52.236;5.710;2023-03-16T01:37:04;13.63;;;6.22;;
18501;SDS011;68437;52.236;5.710;2023-03-16T01:39:31;12.20;;;5.80;;
18501;SDS011;68437;52.236;5.710;2023-03-16T01:41:58;12.52;;;6.15;;
18501;SDS011;68437;52.236;5.710;2023-03-16T01:44:26;10.63;;;5.65;;
18501;SDS011;68437;52.236;5.710;2023-03-16T01:46:54;11.85;;;6.03;;
18501;SDS011;68437;52.236;5.710;2023-03-16T01:49:22;13.32;;;5.60;;
18501;SDS011;68437;52.236;5.710;2023-03-16T01:51:53;15.27;;;6.10;;
18501;SDS011;68437;52.236;5.710;2023-03-16T01:54:24;11.75;;;6.05;;
18501;SDS011;68437;52.236;5.710;2023-03-16T01:56:55;15.63;;;6.00;;
18501;SDS011;68437;52.236;5.710;2023-03-16T01:59:28;13.60;;;6.00;;
18501;SDS011;68437;52.236;5.710;2023-03-16T02:01:58;10.88;;;5.50;;
18501;SDS011;68437;52.236;5.710;2023-03-16T02:04:30;13.40;;;6.47;;
18501;SDS011;68437;52.236;5.710;2023-03-16T02:07:04;18.67;;;6.50;;
18501;SDS011;68437;52.236;5.710;2023-03-16T02:09:33;15.38;;;6.10;;
18501;SDS011;68437;52.236;5.710;2023-03-16T02:12:02;12.10;;;6.60;;
18501;SDS011;68437;52.236;5.710;2023-03-16T02:14:31;12.38;;;6.13;;
18501;SDS011;68437;52.236;5.710;2023-03-16T02:16:58;11.02;;;5.95;;
18501;SDS011;68437;52.236;5.710;2023-03-16T02:19:30;12.48;;;6.25;;
18501;SDS011;68437;52.236;5.710;2023-03-16T02:22:06;12.68;;;5.93;;
18501;SDS011;68437;52.236;5.710;2023-03-16T02:24:35;11.18;;;6.00;;
18501;SDS011;68437;52.236;5.710;2023-03-16T02:27:03;12.13;;;6.60;;
18501;SDS011;68437;52.236;5.710;2023-03-16T02:29:47;9.75;;;5.60;;
18501;SDS011;68437;52.236;5.710;2023-03-16T02:32:20;10.52;;;5.78;;
18501;SDS011;68437;52.236;5.710;2023-03-16T02:34:49;12.80;;;5.85;;
18501;SDS011;68437;52.236;5.710;2023-03-16T02:37:16;11.93;;;5.90;;
18501;SDS011;68437;52.236;5.710;2023-03-16T02:39:44;14.82;;;5.90;;
18501;SDS011;68437;52.236;5.710;2023-03-16T02:42:11;12.27;;;5.70;;
18501;SDS011;68437;52.236;5.710;2023-03-16T02:44:41;12.50;;;6.05;;
18501;SDS011;68437;52.236;5.710;2023-03-16T02:47:14;10.23;;;6.28;;
18501;SDS011;68437;52.236;5.710;2023-03-16T02:49:47;10.57;;;5.30;;
18501;SDS011;68437;52.236;5.710;2023-03-16T02:52:14;15.50;;;6.18;;
18501;SDS011;68437;52.236;5.710;2023-03-16T02:54:40;10.57;;;6.13;;
18501;SDS011;68437;52.236;5.710;2023-03-16T02:57:07;9.95;;;5.82;;
18501;SDS011;68437;52.236;5.710;2023-03-16T02:59:34;11.38;;;5.80;;
18501;SDS011;68437;52.236;5.710;2023-03-16T03:02:01;10.50;;;5.50;;
18501;SDS011;68437;52.236;5.710;2023-03-16T03:04:30;11.05;;;5.88;;
18501;SDS011;68437;52.236;5.710;2023-03-16T03:06:57;10.13;;;5.45;;
18501;SDS011;68437;52.236;5.710;2023-03-16T03:09:28;9.70;;;5.32;;
18501;SDS011;68437;52.236;5.710;2023-03-16T03:11:56;11.23;;;5.68;;
18501;SDS011;68437;52.236;5.710;2023-03-16T03:14:23;11.40;;;5.30;;
18501;SDS011;68437;52.236;5.710;2023-03-16T03:16:52;12.32;;;5.97;;
18501;SDS011;68437;52.236;5.710;2023-03-16T03:19:19;16.17;;;5.70;;
18501;SDS011;68437;52.236;5.710;2023-03-16T03:21:48;11.68;;;5.70;;
18501;SDS011;68437;52.236;5.710;2023-03-16T03:24:15;9.75;;;5.70;;
18501;SDS011;68437;52.236;5.710;2023-03-16T03:26:43;9.52;;;5.35;;
18501;SDS011;68437;52.236;5.710;2023-03-16T03:29:10;12.23;;;5.93;;
18501;SDS011;68437;52.236;5.710;2023-03-16T03:31:37;14.68;;;6.18;;
18501;SDS011;68437;52.236;5.710;2023-03-16T03:34:03;15.23;;;5.90;;
18501;SDS011;68437;52.236;5.710;2023-03-16T03:36:31;9.27;;;5.57;;
18501;SDS011;68437;52.236;5.710;2023-03-16T03:38:59;11.82;;;6.10;;
18501;SDS011;68437;52.236;5.710;2023-03-16T03:41:30;13.15;;;6.20;;
18501;SDS011;68437;52.236;5.710;2023-03-16T03:43:57;13.05;;;5.97;;
18501;SDS011;68437;52.236;5.710;2023-03-16T03:46:24;13.25;;;6.22;;
18501;SDS011;68437;52.236;5.710;2023-03-16T03:48:52;13.30;;;5.63;;
18501;SDS011;68437;52.236;5.710;2023-03-16T03:51:19;9.95;;;5.75;;
18501;SDS011;68437;52.236;5.710;2023-03-16T03:53:46;13.33;;;7.00;;
18501;SDS011;68437;52.236;5.710;2023-03-16T03:56:14;13.82;;;6.07;;
18501;SDS011;68437;52.236;5.710;2023-03-16T03:58:41;11.82;;;6.70;;
18501;SDS011;68437;52.236;5.710;2023-03-16T04:01:08;11.52;;;6.65;;
18501;SDS011;68437;52.236;5.710;2023-03-16T04:03:34;12.45;;;6.70;;
18501;SDS011;68437;52.236;5.710;2023-03-16T04:06:01;12.55;;;6.35;;
18501;SDS011;68437;52.236;5.710;2023-03-16T04:08:31;15.05;;;6.75;;
18501;SDS011;68437;52.236;5.710;2023-03-16T04:10:58;10.63;;;6.55;;
18501;SDS011;68437;52.236;5.710;2023-03-16T04:13:26;15.02;;;6.63;;
18501;SDS011;68437;52.236;5.710;2023-03-16T04:15:55;11.90;;;7.07;;
18501;SDS011;68437;52.236;5.710;2023-03-16T04:18:22;16.90;;;6.93;;
18501;SDS011;68437;52.236;5.710;2023-03-16T04:20:49;12.88;;;6.97;;
18501;SDS011;68437;52.236;5.710;2023-03-16T04:23:17;14.47;;;7.37;;
18501;SDS011;68437;52.236;5.710;2023-03-16T04:25:44;14.98;;;7.30;;
18501;SDS011;68437;52.236;5.710;2023-03-16T04:28:11;17.88;;;7.18;;
18501;SDS011;68437;52.236;5.710;2023-03-16T04:30:43;12.18;;;6.97;;
18501;SDS011;68437;52.236;5.710;2023-03-16T04:33:10;13.70;;;7.20;;
18501;SDS011;68437;52.236;5.710;2023-03-16T04:35:36;14.30;;;7.10;;
18501;SDS011;68437;52.236;5.710;2023-03-16T04:38:03;13.75;;;6.65;;
18501;SDS011;68437;52.236;5.710;2023-03-16T04:40:30;12.47;;;6.63;;
18501;SDS011;68437;52.236;5.710;2023-03-16T04:42:57;14.13;;;6.68;;
18501;SDS011;68437;52.236;5.710;2023-03-16T04:45:24;15.73;;;7.03;;
18501;SDS011;68437;52.236;5.710;2023-03-16T04:47:52;13.40;;;6.60;;
18501;SDS011;68437;52.236;5.710;2023-03-16T04:50:19;13.90;;;6.80;;
18501;SDS011;68437;52.236;5.710;2023-03-16T04:52:46;14.13;;;7.35;;
18501;SDS011;68437;52.236;5.710;2023-03-16T04:55:13;12.77;;;6.72;;
18501;SDS011;68437;52.236;5.710;2023-03-16T04:57:40;13.07;;;5.95;;
18501;SDS011;68437;52.236;5.710;2023-03-16T05:00:08;11.55;;;6.32;;
18501;SDS011;68437;52.236;5.710;2023-03-16T05:02:39;13.20;;;6.83;;
18501;SDS011;68437;52.236;5.710;2023-03-16T05:05:08;15.60;;;7.37;;
18501;SDS011;68437;52.236;5.710;2023-03-16T05:07:35;17.03;;;7.20;;
18501;SDS011;68437;52.236;5.710;2023-03-16T05:10:02;14.07;;;6.72;;
18501;SDS011;68437;52.236;5.710;2023-03-16T05:12:29;13.35;;;6.47;;
18501;SDS011;68437;52.236;5.710;2023-03-16T05:14:56;15.35;;;7.15;;
18501;SDS011;68437;52.236;5.710;2023-03-16T05:17:23;13.48;;;6.75;;
18501;SDS011;68437;52.236;5.710;2023-03-16T05:19:50;10.65;;;6.50;;
18501;SDS011;68437;52.236;5.710;2023-03-16T05:22:18;12.38;;;6.60;;
18501;SDS011;68437;52.236;5.710;2023-03-16T05:24:45;13.55;;;6.45;;
18501;SDS011;68437;52.236;5.710;2023-03-16T05:27:12;12.00;;;6.47;;
18501;SDS011;68437;52.236;5.710;2023-03-16T05:29:38;14.30;;;7.07;;
18501;SDS011;68437;52.236;5.710;2023-03-16T05:32:10;12.98;;;6.32;;
18501;SDS011;68437;52.236;5.710;2023-03-16T05:34:37;16.73;;;7.25;;
18501;SDS011;68437;52.236;5.710;2023-03-16T05:37:04;16.10;;;7.00;;
18501;SDS011;68437;52.236;5.710;2023-03-16T05:39:32;15.63;;;6.95;;
18501;SDS011;68437;52.236;5.710;2023-03-16T05:41:59;13.43;;;6.95;;
18501;SDS011;68437;52.236;5.710;2023-03-16T05:44:26;11.23;;;7.00;;
18501;SDS011;68437;52.236;5.710;2023-03-16T05:46:53;12.60;;;6.90;;
18501;SDS011;68437;52.236;5.710;2023-03-16T05:49:19;11.40;;;6.43;;
18501;SDS011;68437;52.236;5.710;2023-03-16T05:51:46;13.85;;;6.57;;
18501;SDS011;68437;52.236;5.710;2023-03-16T05:54:14;13.40;;;6.22;;
18501;SDS011;68437;52.236;5.710;2023-03-16T05:56:42;17.02;;;6.60;;
18501;SDS011;68437;52.236;5.710;2023-03-16T05:59:09;11.85;;;6.47;;
18501;SDS011;68437;52.236;5.710;2023-03-16T06:01:36;13.57;;;6.77;;
18501;SDS011;68437;52.236;5.710;2023-03-16T06:04:04;13.98;;;6.57;;
18501;SDS011;68437;52.236;5.710;2023-03-16T06:06:31;12.38;;;6.53;;
18501;SDS011;68437;52.236;5.710;2023-03-16T06:08:58;17.05;;;6.75;;
18501;SDS011;68437;52.236;5.710;2023-03-16T06:11:25;15.13;;;6.72;;
18501;SDS011;68437;52.236;5.710;2023-03-16T06:13:53;12.50;;;6.97;;
18501;SDS011;68437;52.236;5.710;2023-03-16T06:16:21;15.85;;;6.97;;
18501;SDS011;68437;52.236;5.710;2023-03-16T06:18:48;15.30;;;6.78;;
18501;SDS011;68437;52.236;5.710;2023-03-16T06:21:15;16.23;;;6.93;;
18501;SDS011;68437;52.236;5.710;2023-03-16T06:23:43;15.13;;;7.20;;
18501;SDS011;68437;52.236;5.710;2023-03-16T06:26:10;14.43;;;6.65;;
18501;SDS011;68437;52.236;5.710;2023-03-16T06:28:37;11.43;;;6.43;;
18501;SDS011;68437;52.236;5.710;2023-03-16T06:31:05;12.80;;;6.40;;
18501;SDS011;68437;52.236;5.710;2023-03-16T06:33:32;14.35;;;6.75;;
18501;SDS011;68437;52.236;5.710;2023-03-16T06:35:59;14.77;;;6.85;;
18501;SDS011;68437;52.236;5.710;2023-03-16T06:38:26;14.38;;;6.88;;
18501;SDS011;68437;52.236;5.710;2023-03-16T06:40:53;13.27;;;6.95;;
18501;SDS011;68437;52.236;5.710;2023-03-16T06:43:20;12.18;;;6.60;;
18501;SDS011;68437;52.236;5.710;2023-03-16T06:45:47;13.02;;;7.03;;
18501;SDS011;68437;52.236;5.710;2023-03-16T06:48:15;14.38;;;6.53;;
18501;SDS011;68437;52.236;5.710;2023-03-16T06:50:43;13.98;;;6.47;;
18501;SDS011;68437;52.236;5.710;2023-03-16T06:53:10;13.25;;;6.53;;
18501;SDS011;68437;52.236;5.710;2023-03-16T06:55:37;13.18;;;6.80;;
18501;SDS011;68437;52.236;5.710;2023-03-16T06:58:04;13.65;;;6.55;;
18501;SDS011;68437;52.236;5.710;2023-03-16T07:00:31;13.02;;;6.70;;
18501;SDS011;68437;52.236;5.710;2023-03-16T07:02:58;15.15;;;6.80;;
18501;SDS011;68437;52.236;5.710;2023-03-16T07:05:27;13.73;;;6.30;;
18501;SDS011;68437;52.236;5.710;2023-03-16T07:07:54;16.10;;;6.80;;
18501;SDS011;68437;52.236;5.710;2023-03-16T07:10:21;13.18;;;6.63;;
18501;SDS011;68437;52.236;5.710;2023-03-16T07:12:49;18.98;;;8.25;;
18501;SDS011;68437;52.236;5.710;2023-03-16T07:15:16;20.02;;;10.25;;
18501;SDS011;68437;52.236;5.710;2023-03-16T07:17:43;20.88;;;8.55;;
18501;SDS011;68437;52.236;5.710;2023-03-16T07:20:10;16.65;;;7.80;;
18501;SDS011;68437;52.236;5.710;2023-03-16T07:22:39;12.57;;;6.80;;
18501;SDS011;68437;52.236;5.710;2023-03-16T07:25:07;14.45;;;7.50;;
18501;SDS011;68437;52.236;5.710;2023-03-16T07:27:35;15.05;;;7.40;;
18501;SDS011;68437;52.236;5.710;2023-03-16T07:30:03;15.98;;;7.50;;
18501;SDS011;68437;52.236;5.710;2023-03-16T07:32:30;12.80;;;7.35;;
18501;SDS011;68437;52.236;5.710;2023-03-16T07:34:57;16.08;;;8.05;;
18501;SDS011;68437;52.236;5.710;2023-03-16T07:37:24;12.90;;;7.03;;
18501;SDS011;68437;52.236;5.710;2023-03-16T07:39:52;14.23;;;6.70;;
18501;SDS011;68437;52.236;5.710;2023-03-16T07:42:19;14.32;;;7.13;;
18501;SDS011;68437;52.236;5.710;2023-03-16T07:44:47;17.42;;;7.22;;
18501;SDS011;68437;52.236;5.710;2023-03-16T07:47:14;16.13;;;6.97;;
18501;SDS011;68437;52.236;5.710;2023-03-16T07:49:41;15.50;;;7.20;;
18501;SDS011;68437;52.236;5.710;2023-03-16T07:52:08;12.45;;;7.03;;
18501;SDS011;68437;52.236;5.710;2023-03-16T07:54:37;13.45;;;7.15;;
18501;SDS011;68437;52.236;5.710;2023-03-16T07:57:06;14.63;;;7.30;;
18501;SDS011;68437;52.236;5.710;2023-03-16T07:59:33;14.98;;;7.25;;
18501;SDS011;68437;52.236;5.710;2023-03-16T08:02:00;13.68;;;7.15;;
18501;SDS011;68437;52.236;5.710;2023-03-16T08:04:27;16.48;;;7.82;;
18501;SDS011;68437;52.236;5.710;2023-03-16T08:06:55;14.73;;;7.20;;
18501;SDS011;68437;52.236;5.710;2023-03-16T08:09:24;17.30;;;7.70;;
18501;SDS011;68437;52.236;5.710;2023-03-16T08:11:51;14.98;;;7.32;;
18501;SDS011;68437;52.236;5.710;2023-03-16T08:14:19;16.77;;;8.20;;
18501;SDS011;68437;52.236;5.710;2023-03-16T08:16:47;16.95;;;7.72;;
18501;SDS011;68437;52.236;5.710;2023-03-16T08:19:14;18.50;;;7.25;;
18501;SDS011;68437;52.236;5.710;2023-03-16T08:21:44;13.45;;;7.30;;
18501;SDS011;68437;52.236;5.710;2023-03-16T08:24:11;18.15;;;7.55;;
18501;SDS011;68437;52.236;5.710;2023-03-16T08:26:38;19.10;;;7.68;;
18501;SDS011;68437;52.236;5.710;2023-03-16T08:29:04;17.27;;;8.00;;
18501;SDS011;68437;52.236;5.710;2023-03-16T08:31:33;18.85;;;8.30;;
18501;SDS011;68437;52.236;5.710;2023-03-16T08:34:00;18.25;;;8.02;;
18501;SDS011;68437;52.236;5.710;2023-03-16T08:36:27;11.95;;;7.22;;
18501;SDS011;68437;52.236;5.710;2023-03-16T08:38:55;17.90;;;7.72;;
18501;SDS011;68437;52.236;5.710;2023-03-16T08:41:22;15.98;;;8.18;;
18501;SDS011;68437;52.236;5.710;2023-03-16T08:43:49;17.13;;;8.07;;
18501;SDS011;68437;52.236;5.710;2023-03-16T08:46:16;15.77;;;8.05;;
18501;SDS011;68437;52.236;5.710;2023-03-16T08:48:45;17.65;;;7.40;;
18501;SDS011;68437;52.236;5.710;2023-03-16T08:51:12;15.80;;;7.90;;
18501;SDS011;68437;52.236;5.710;2023-03-16T08:53:39;19.20;;;8.30;;
18501;SDS011;68437;52.236;5.710;2023-03-16T08:56:07;15.65;;;7.38;;
18501;SDS011;68437;52.236;5.710;2023-03-16T08:58:36;14.18;;;7.15;;
18501;SDS011;68437;52.236;5.710;2023-03-16T09:01:06;16.88;;;7.50;;
18501;SDS011;68437;52.236;5.710;2023-03-16T09:03:33;17.13;;;7.60;;
18501;SDS011;68437;52.236;5.710;2023-03-16T09:06:02;14.75;;;7.85;;
18501;SDS011;68437;52.236;5.710;2023-03-16T09:08:30;16.38;;;6.95;;
18501;SDS011;68437;52.236;5.710;2023-03-16T09:10:58;14.07;;;7.22;;
18501;SDS011;68437;52.236;5.710;2023-03-16T09:13:25;16.42;;;7.55;;
18501;SDS011;68437;52.236;5.710;2023-03-16T09:15:52;16.40;;;7.20;;
18501;SDS011;68437;52.236;5.710;2023-03-16T09:18:19;14.43;;;7.15;;
18501;SDS011;68437;52.236;5.710;2023-03-16T09:20:47;15.20;;;6.53;;
18501;SDS011;68437;52.236;5.710;2023-03-16T09:23:15;13.32;;;6.00;;
18501;SDS011;68437;52.236;5.710;2023-03-16T09:25:42;13.13;;;6.28;;
18501;SDS011;68437;52.236;5.710;2023-03-16T09:28:09;14.80;;;6.20;;
18501;SDS011;68437;52.236;5.710;2023-03-16T09:30:36;17.92;;;6.80;;
18501;SDS011;68437;52.236;5.710;2023-03-16T09:33:03;13.57;;;5.75;;
18501;SDS011;68437;52.236;5.710;2023-03-16T09:35:30;13.98;;;6.22;;
18501;SDS011;68437;52.236;5.710;2023-03-16T09:37:57;22.80;;;6.43;;
18501;SDS011;68437;52.236;5.710;2023-03-16T09:40:26;26.42;;;5.95;;
18501;SDS011;68437;52.236;5.710;2023-03-16T09:42:58;17.80;;;5.65;;
18501;SDS011;68437;52.236;5.710;2023-03-16T09:45:36;10.93;;;5.60;;
18501;SDS011;68437;52.236;5.710;2023-03-16T09:48:09;12.10;;;5.03;;
18501;SDS011;68437;52.236;5.710;2023-03-16T09:50:38;11.18;;;5.40;;
18501;SDS011;68437;52.236;5.710;2023-03-16T09:53:09;17.58;;;6.00;;
18501;SDS011;68437;52.236;5.710;2023-03-16T09:55:43;19.55;;;6.15;;
18501;SDS011;68437;52.236;5.710;2023-03-16T09:58:15;16.05;;;6.13;;
18501;SDS011;68437;52.236;5.710;2023-03-16T10:00:45;17.38;;;5.40;;
18501;SDS011;68437;52.236;5.710;2023-03-16T10:03:23;15.65;;;5.53;;
18501;SDS011;68437;52.236;5.710;2023-03-16T10:05:59;11.15;;;5.15;;
18501;SDS011;68437;52.236;5.710;2023-03-16T10:08:29;10.13;;;5.22;;
18501;SDS011;68437;52.236;5.710;2023-03-16T10:11:09;12.48;;;5.20;;
18501;SDS011;68437;52.236;5.710;2023-03-16T10:13:48;10.23;;;4.85;;
18501;SDS011;68437;52.236;5.710;2023-03-16T10:16:20;13.70;;;5.25;;
18501;SDS011;68437;52.236;5.710;2023-03-16T10:18:52;20.30;;;5.57;;
18501;SDS011;68437;52.236;5.710;2023-03-16T10:21:25;13.95;;;5.35;;
18501;SDS011;68437;52.236;5.710;2023-03-16T10:23:52;12.00;;;4.95;;
18501;SDS011;68437;52.236;5.710;2023-03-16T10:26:23;15.95;;;5.57;;
18501;SDS011;68437;52.236;5.710;2023-03-16T10:28:55;11.18;;;4.55;;
18501;SDS011;68437;52.236;5.710;2023-03-16T10:31:25;9.02;;;4.75;;
18501;SDS011;68437;52.236;5.710;2023-03-16T10:33:53;9.40;;;5.10;;
18501;SDS011;68437;52.236;5.710;2023-03-16T10:36:30;8.02;;;4.53;;
18501;SDS011;68437;52.236;5.710;2023-03-16T10:38:59;10.60;;;4.95;;
18501;SDS011;68437;52.236;5.710;2023-03-16T10:41:30;8.15;;;5.00;;
18501;SDS011;68437;52.236;5.710;2023-03-16T10:43:58;8.15;;;5.07;;
18501;SDS011;68437;52.236;5.710;2023-03-16T10:46:35;10.30;;;5.22;;
18501;SDS011;68437;52.236;5.710;2023-03-16T10:49:04;12.48;;;5.15;;
18501;SDS011;68437;52.236;5.710;2023-03-16T10:51:44;13.55;;;5.22;;
18501;SDS011;68437;52.236;5.710;2023-03-16T10:54:13;10.27;;;4.95;;
18501;SDS011;68437;52.236;5.710;2023-03-16T10:56:54;11.18;;;5.35;;
18501;SDS011;68437;52.236;5.710;2023-03-16T10:59:26;11.02;;;4.85;;
18501;SDS011;68437;52.236;5.710;2023-03-16T11:01:57;10.20;;;4.97;;
18501;SDS011;68437;52.236;5.710;2023-03-16T11:04:39;10.63;;;5.05;;
18501;SDS011;68437;52.236;5.710;2023-03-16T11:07:06;8.15;;;4.72;;
18501;SDS011;68437;52.236;5.710;2023-03-16T11:09:35;10.20;;;5.00;;
18501;SDS011;68437;52.236;5.710;2023-03-16T11:12:12;9.63;;;4.95;;
18501;SDS011;68437;52.236;5.710;2023-03-16T11:14:44;9.60;;;4.95;;
18501;SDS011;68437;52.236;5.710;2023-03-16T11:17:14;10.43;;;4.78;;
18501;SDS011;68437;52.236;5.710;2023-03-16T11:19:46;12.63;;;4.40;;
18501;SDS011;68437;52.236;5.710;2023-03-16T11:22:18;13.30;;;4.82;;
18501;SDS011;68437;52.236;5.710;2023-03-16T11:24:49;12.95;;;5.07;;
18501;SDS011;68437;52.236;5.710;2023-03-16T11:27:23;10.10;;;4.82;;
18501;SDS011;68437;52.236;5.710;2023-03-16T11:30:00;11.32;;;4.78;;
18501;SDS011;68437;52.236;5.710;2023-03-16T11:32:35;10.43;;;4.65;;
18501;SDS011;68437;52.236;5.710;2023-03-16T11:35:10;8.93;;;4.80;;
18501;SDS011;68437;52.236;5.710;2023-03-16T11:40:38;8.65;;;4.63;;
18501;SDS011;68437;52.236;5.710;2023-03-16T11:43:17;7.90;;;4.60;;
18501;SDS011;68437;52.236;5.710;2023-03-16T11:46:17;9.90;;;5.15;;
18501;SDS011;68437;52.236;5.710;2023-03-16T11:48:50;8.80;;;4.80;;
18501;SDS011;68437;52.236;5.710;2023-03-16T11:51:52;11.55;;;4.80;;
18501;SDS011;68437;52.236;5.710;2023-03-16T11:54:29;8.30;;;4.03;;
18501;SDS011;68437;52.236;5.710;2023-03-16T11:57:06;11.77;;;4.72;;
18501;SDS011;68437;52.236;5.710;2023-03-16T11:59:57;12.40;;;4.40;;
18501;SDS011;68437;52.236;5.710;2023-03-16T12:02:38;9.15;;;4.38;;
18501;SDS011;68437;52.236;5.710;2023-03-16T12:05:22;8.48;;;4.70;;
18501;SDS011;68437;52.236;5.710;2023-03-16T12:08:13;9.02;;;4.32;;
18501;SDS011;68437;52.236;5.710;2023-03-16T12:10:53;9.10;;;4.57;;
18501;SDS011;68437;52.236;5.710;2023-03-16T12:13:29;8.93;;;4.15;;
18501;SDS011;68437;52.236;5.710;2023-03-16T12:16:06;11.98;;;4.47;;
18501;SDS011;68437;52.236;5.710;2023-03-16T12:18:38;12.32;;;4.70;;
18501;SDS011;68437;52.236;5.710;2023-03-16T12:21:12;6.38;;;4.05;;
18501;SDS011;68437;52.236;5.710;2023-03-16T12:23:42;10.35;;;4.40;;
18501;SDS011;68437;52.236;5.710;2023-03-16T12:26:17;10.20;;;4.60;;
18501;SDS011;68437;52.236;5.710;2023-03-16T12:28:46;10.00;;;4.45;;
18501;SDS011;68437;52.236;5.710;2023-03-16T12:31:16;9.90;;;4.68;;
18501;SDS011;68437;52.236;5.710;2023-03-16T12:33:50;7.07;;;4.22;;
18501;SDS011;68437;52.236;5.710;2023-03-16T12:36:39;7.22;;;3.92;;
18501;SDS011;68437;52.236;5.710;2023-03-16T12:39:30;9.07;;;4.25;;
18501;SDS011;68437;52.236;5.710;2023-03-16T12:42:09;7.65;;;3.67;;
18501;SDS011;68437;52.236;5.710;2023-03-16T12:44:50;8.18;;;4.00;;
18501;SDS011;68437;52.236;5.710;2023-03-16T12:47:24;9.80;;;4.40;;
18501;SDS011;68437;52.236;5.710;2023-03-16T12:50:01;6.30;;;4.00;;
18501;SDS011;68437;52.236;5.710;2023-03-16T12:52:37;8.05;;;4.40;;
18501;SDS011;68437;52.236;5.710;2023-03-16T12:55:11;7.95;;;3.83;;
18501;SDS011;68437;52.236;5.710;2023-03-16T12:57:40;14.02;;;4.15;;
18501;SDS011;68437;52.236;5.710;2023-03-16T13:00:08;13.15;;;5.05;;
18501;SDS011;68437;52.236;5.710;2023-03-16T13:02:40;7.57;;;4.00;;
18501;SDS011;68437;52.236;5.710;2023-03-16T13:05:10;10.75;;;4.57;;
18501;SDS011;68437;52.236;5.710;2023-03-16T13:07:45;10.98;;;3.95;;
18501;SDS011;68437;52.236;5.710;2023-03-16T13:10:13;7.57;;;4.25;;
18501;SDS011;68437;52.236;5.710;2023-03-16T13:12:44;9.27;;;4.22;;
18501;SDS011;68437;52.236;5.710;2023-03-16T13:15:25;8.45;;;4.30;;
18501;SDS011;68437;52.236;5.710;2023-03-16T13:18:04;9.57;;;4.50;;
18501;SDS011;68437;52.236;5.710;2023-03-16T13:20:51;9.48;;;4.25;;
18501;SDS011;68437;52.236;5.710;2023-03-16T13:23:21;8.88;;;4.20;;
18501;SDS011;68437;52.236;5.710;2023-03-16T13:26:02;11.38;;;3.72;;
18501;SDS011;68437;52.236;5.710;2023-03-16T13:28:32;9.80;;;4.05;;
18501;SDS011;68437;52.236;5.710;2023-03-16T13:31:01;6.15;;;3.90;;
18501;SDS011;68437;52.236;5.710;2023-03-16T13:33:30;7.53;;;4.13;;
18501;SDS011;68437;52.236;5.710;2023-03-16T13:36:02;7.78;;;3.90;;
18501;SDS011;68437;52.236;5.710;2023-03-16T13:38:31;8.18;;;4.25;;
18501;SDS011;68437;52.236;5.710;2023-03-16T13:41:00;9.90;;;4.10;;
18501;SDS011;68437;52.236;5.710;2023-03-16T13:43:29;9.52;;;4.45;;
18501;SDS011;68437;52.236;5.710;2023-03-16T13:45:59;8.73;;;3.70;;
18501;SDS011;68437;52.236;5.710;2023-03-16T13:48:27;6.40;;;3.58;;
18501;SDS011;68437;52.236;5.710;2023-03-16T13:51:01;9.98;;;3.88;;
18501;SDS011;68437;52.236;5.710;2023-03-16T13:53:29;10.35;;;3.88;;
18501;SDS011;68437;52.236;5.710;2023-03-16T13:55:57;7.38;;;3.40;;
18501;SDS011;68437;52.236;5.710;2023-03-16T13:58:27;7.78;;;3.80;;
18501;SDS011;68437;52.236;5.710;2023-03-16T14:00:57;8.23;;;4.25;;
18501;SDS011;68437;52.236;5.710;2023-03-16T14:03:31;7.18;;;4.10;;
18501;SDS011;68437;52.236;5.710;2023-03-16T14:06:00;7.28;;;3.85;;
18501;SDS011;68437;52.236;5.710;2023-03-16T14:08:27;6.60;;;3.75;;
18501;SDS011;68437;52.236;5.710;2023-03-16T14:10:55;6.40;;;3.80;;
18501;SDS011;68437;52.236;5.710;2023-03-16T14:13:24;10.23;;;4.32;;
18501;SDS011;68437;52.236;5.710;2023-03-16T14:15:58;7.90;;;4.07;;
18501;SDS011;68437;52.236;5.710;2023-03-16T14:18:29;8.02;;;3.50;;
18501;SDS011;68437;52.236;5.710;2023-03-16T14:21:04;8.93;;;4.07;;
18501;SDS011;68437;52.236;5.710;2023-03-16T14:23:34;6.65;;;3.63;;
18501;SDS011;68437;52.236;5.710;2023-03-16T14:26:03;6.00;;;3.75;;
18501;SDS011;68437;52.236;5.710;2023-03-16T14:28:32;9.43;;;3.92;;
18501;SDS011;68437;52.236;5.710;2023-03-16T14:31:03;9.05;;;4.13;;
18501;SDS011;68437;52.236;5.710;2023-03-16T14:33:33;9.50;;;3.95;;
18501;SDS011;68437;52.236;5.710;2023-03-16T14:36:09;7.85;;;4.18;;
18501;SDS011;68437;52.236;5.710;2023-03-16T14:38:38;10.52;;;4.00;;
18501;SDS011;68437;52.236;5.710;2023-03-16T14:41:12;9.75;;;4.10;;
18501;SDS011;68437;52.236;5.710;2023-03-16T14:43:46;6.78;;;3.90;;
18501;SDS011;68437;52.236;5.710;2023-03-16T14:46:15;9.50;;;3.78;;
18501;SDS011;68437;52.236;5.710;2023-03-16T14:48:49;8.50;;;3.70;;
18501;SDS011;68437;52.236;5.710;2023-03-16T14:51:16;8.32;;;3.28;;
18501;SDS011;68437;52.236;5.710;2023-03-16T14:53:43;6.10;;;3.67;;
18501;SDS011;68437;52.236;5.710;2023-03-16T14:56:10;6.57;;;3.20;;